Latest Weather Observations for Mangalore

IDV60801

Issued at 9:02 am EST Friday 31 July 2015 (issued every 30 minutes, with the page automatically refreshed every 10 minutes)

About weather observations | Map of weather stations | Latest weather observations for VIC | Other Formats
Station Details ID: 088109 Name: MANGALORE AIRPORT Lat: -36.89 Lon: 145.19 Height: 140.8 m
Data from the previous 72 hours. | See also: Recent months at Mangalore
Date/Time
EST
Temp
°C
App
Temp
°C
Dew
Point
Rel
Hum
%
Delta-T
°C
Wind Press
QNH
hPa
Press
MSL
hPa
Rain
since 9 am
mm
Dir
 
Spd
km/h
Gust
km/h
Spd
kts
Gust
kts
31/09:00am 2.9 0.0 2.8 99 0.0 SW 7 9 4 5 1021.7 1022.0 1.0
31/08:30am 2.1 -0.9 2.0 99 0.0 SW 7 9 4 5 1021.9 1022.2 1.0
31/08:00am 1.7 0.0 1.6 99 0.0 CALM 0 0 0 0 1021.5 1021.8 1.0
31/07:30am 1.7 -2.1 1.6 99 0.0 SSW 11 13 6 7 1020.9 1021.2 1.0
31/07:00am 2.3 -0.7 2.2 99 0.0 SSW 7 9 4 5 1020.6 1020.9 1.0
31/06:30am 3.2 0.4 3.1 99 0.0 SSW 7 9 4 5 1020.2 1020.5 1.0
31/06:00am 3.5 0.9 3.4 99 0.0 SSW 6 7 3 4 1019.9 1020.2 1.0
31/05:30am 4.2 1.6 4.2 100 0.0 SSW 7 9 4 5 1019.9 1020.2 1.0
31/05:00am 4.6 2.1 4.6 100 0.0 SSW 7 9 4 5 1019.6 1019.9 1.0
31/04:30am 4.9 1.6 4.8 99 0.0 SSW 11 13 6 7 1019.3 1019.6 1.0
31/04:00am 5.1 2.3 5.0 99 0.0 SSW 9 11 5 6 1019.0 1019.3 0.6
31/03:30am 5.3 1.7 5.2 99 0.0 SSW 13 17 7 9 1019.0 1019.3 0.6
31/03:00am 4.8 2.3 4.7 99 0.0 SSE 7 11 4 6 1018.9 1019.2 0.6
31/02:59am 4.6 2.1 4.5 99 0.0 SSE 7 11 4 6 1018.9 1019.2 0.6
31/02:30am 5.0 2.1 4.9 99 0.0 SSE 9 9 5 5 1019.0 1019.3 0.6
31/02:13am 5.1 2.6 5.0 99 0.0 SSE 7 9 4 5 1018.9 1019.2 0.6
31/02:00am 5.8 3.1 5.4 97 0.2 SSE 9 11 5 6 1018.9 1019.2 0.6
31/01:30am 7.6 5.6 7.0 96 0.3 SSE 7 13 4 7 1018.6 1019.0 0.6
31/01:00am 7.9 6.2 7.5 97 0.2 NNE 6 9 3 5 1018.8 1019.1 0.6
31/12:30am 8.0 6.3 7.4 96 0.3 NNE 6 7 3 4 1018.6 1019.0 0.6
31/12:00am 7.9 6.1 7.1 95 0.4 NNE 6 9 3 5 1018.5 1018.9 0.6
 
Date/Time
EST
Temp
°C
App
Temp
°C
Dew
Point
Rel
Hum
%
Delta-T
°C
Wind Press
QNH
hPa
Press
MSL
hPa
Rain
since 9 am
mm
Dir
 
Spd
km/h
Gust
km/h
Spd
kts
Gust
kts
30/11:30pm 8.0 7.3 6.9 93 0.5 CALM 0 6 0 3 1018.5 1018.9 0.6
30/11:00pm 7.9 5.4 6.5 91 0.6 NNE 9 11 5 6 1018.6 1019.0 0.6
30/10:30pm 8.4 5.1 6.2 86 1.0 NE 13 17 7 9 1018.6 1019.0 0.2
30/10:00pm 8.6 4.8 5.7 82 1.3 NNE 15 20 8 11 1018.1 1018.5 0.2
30/09:30pm 8.6 3.9 5.9 83 1.2 NE 20 26 11 14 1018.2 1018.6 0.2
30/09:00pm 8.4 4.3 6.2 86 1.0 NE 17 22 9 12 1018.3 1018.7 0.2
30/08:30pm 8.3 4.2 6.1 86 1.0 NE 17 20 9 11 1018.4 1018.8 0.2
30/08:00pm 8.6 4.0 5.5 81 1.4 NNE 19 24 10 13 1018.5 1018.9 0.0
30/07:30pm 8.6 3.8 5.5 81 1.4 NNE 20 28 11 15 1018.2 1018.6 0.0
30/07:00pm 8.8 4.5 5.2 78 1.6 NNE 17 22 9 12 1018.2 1018.6 0.0
30/06:30pm 9.2 4.2 4.6 73 2.1 NNE 20 26 11 14 1018.2 1018.6 0.0
30/06:00pm 9.3 3.9 4.7 73 2.1 NNE 22 30 12 16 1017.9 1018.3 0.0
30/05:30pm 9.4 3.6 4.6 72 2.2 NNE 24 30 13 16 1017.2 1017.5 0.0
30/05:00pm 9.6 3.8 4.6 71 2.2 NNE 24 32 13 17 1017.6 1018.0 0.0
30/04:30pm 9.8 3.2 4.4 69 2.4 NNE 28 37 15 20 1017.6 1018.0 0.0
30/04:00pm 10.1 3.1 4.0 66 2.7 NNE 30 43 16 23 1017.6 1018.0 0.0
30/03:30pm 10.3 3.8 4.5 67 2.6 NNE 28 37 15 20 1017.8 1018.2 0.0
30/03:00pm 10.1 3.9 4.5 68 2.5 NNE 26 32 14 17 1018.4 1018.8 0.0
30/02:30pm 10.0 4.2 4.4 68 2.5 N 24 32 13 17 1019.0 1019.3 0.0
30/02:00pm 10.1 3.1 4.0 66 2.7 N 30 39 16 21 1019.4 1019.7 0.0
30/01:30pm 10.2 3.6 4.4 67 2.6 N 28 39 15 21 1019.7 1020.0 0.0
30/01:00pm 10.3 3.8 4.9 69 2.4 N 28 37 15 20 1021.0 1021.3 0.0
30/12:30pm 10.1 4.1 5.1 71 2.3 N 26 35 14 19 1021.4 1021.7 0.0
30/12:00pm 9.6 3.2 5.2 74 2.0 N 28 41 15 22 1022.2 1022.5 0.0
30/11:30am 9.5 3.8 4.7 72 2.2 N 24 37 13 20 1022.8 1023.1 0.0
30/11:00am 8.9 3.2 4.7 75 1.9 N 24 30 13 16 1023.2 1023.5 0.0
30/10:30am 9.1 3.8 5.1 76 1.8 N 22 32 12 17 1023.5 1023.9 0.0
30/10:00am 8.5 3.2 5.1 79 1.5 N 22 30 12 16 1023.8 1024.2 0.0
30/09:30am 8.0 2.7 5.1 82 1.3 NNE 22 28 12 15 1023.9 1024.3 0.0
30/09:00am 7.5 2.6 5.3 86 1.0 NNE 20 28 11 15 1024.2 1024.6 0.0
30/08:30am 6.8 2.2 5.7 93 0.5 NNE 19 24 10 13 1024.3 1024.7 0.0
30/08:00am 6.4 2.6 5.7 95 0.3 NNE 15 20 8 11 1024.4 1024.8 0.0
30/07:30am 6.3 2.8 5.4 94 0.4 NNE 13 17 7 9 1024.3 1024.7 0.0
30/07:00am 6.2 2.6 5.2 93 0.4 NNE 13 19 7 10 1024.4 1024.8 0.0
30/06:30am 6.3 2.7 5.1 92 0.5 NNE 13 17 7 9 1024.6 1025.0 0.0
30/06:00am 6.4 2.9 5.4 93 0.4 NNE 13 19 7 10 1024.8 1025.2 0.0
30/05:30am 6.3 2.7 5.1 92 0.5 NNE 13 17 7 9 1024.8 1025.2 0.0
30/05:00am 6.6 3.0 5.2 91 0.6 NNE 13 17 7 9 1025.2 1025.6 0.0
30/04:30am 6.4 3.2 5.0 91 0.6 NNE 11 15 6 8 1025.1 1025.5 0.0
30/04:00am 6.3 2.7 4.9 91 0.6 NNE 13 13 7 7 1025.6 1026.0 0.0
30/03:30am 6.2 2.9 4.7 90 0.7 NNE 11 13 6 7 1025.5 1025.9 0.0
30/03:00am 6.4 3.2 4.9 90 0.7 NNE 11 13 6 7 1026.0 1026.4 0.0
30/02:30am 6.6 3.3 4.8 88 0.8 NNE 11 17 6 9 1026.5 1026.8 0.0
30/02:00am 7.1 3.5 5.1 87 0.9 NNE 13 15 7 8 1026.8 1027.1 0.0
30/01:30am 7.4 3.5 5.5 88 0.9 NE 15 19 8 10 1026.9 1027.2 0.0
30/01:00am 7.6 4.2 5.7 88 0.9 NNE 13 17 7 9 1027.3 1027.6 0.0
30/12:30am 7.4 4.0 5.7 89 0.8 NNE 13 15 7 8 1027.9 1028.2 0.0
30/12:00am 7.6 4.2 5.7 88 0.9 NNE 13 17 7 9 1028.0 1028.3 0.0
 
Date/Time
EST
Temp
°C
App
Temp
°C
Dew
Point
Rel
Hum
%
Delta-T
°C
Wind Press
QNH
hPa
Press
MSL
hPa
Rain
since 9 am
mm
Dir
 
Spd
km/h
Gust
km/h
Spd
kts
Gust
kts
29/11:30pm 7.8 4.8 5.9 88 0.9 NNE 11 13 6 7 1028.4 1028.7 0.0
29/11:00pm 7.8 4.8 5.9 88 0.9 NNE 11 13 6 7 1028.5 1028.8 0.0
29/10:30pm 8.1 5.5 5.9 86 1.0 N 9 13 5 7 1028.8 1029.1 0.0
29/10:00pm 8.3 5.3 5.9 85 1.1 NNE 11 15 6 8 1028.8 1029.1 0.0
29/09:30pm 8.4 4.6 5.7 83 1.2 NNE 15 19 8 10 1028.8 1029.1 0.0
29/09:00pm 8.4 4.9 5.5 82 1.3 NE 13 17 7 9 1029.2 1029.5 0.0
29/08:30pm 8.5 5.4 5.4 81 1.4 NNE 11 15 6 8 1029.2 1029.5 0.0
29/08:00pm 8.3 5.9 5.2 81 1.4 NNE 7 9 4 5 1029.4 1029.8 0.0
29/07:30pm 8.5 5.3 5.3 80 1.4 NNE 11 13 6 7 1029.3 1029.6 0.0
29/07:00pm 8.6 5.8 5.2 79 1.5 NNE 9 11 5 6 1029.2 1029.5 0.0
29/06:30pm 8.7 5.9 5.3 79 1.5 NNE 9 11 5 6 1029.3 1029.6 0.0
29/06:00pm 8.9 6.1 5.3 78 1.6 NNE 9 13 5 7 1029.2 1029.5 0.0
29/05:30pm 9.2 6.0 5.2 76 1.8 N 11 13 6 7 1029.3 1029.6 0.0
29/05:00pm 9.5 6.7 5.1 74 2.0 N 9 13 5 7 1029.5 1029.9 0.0
29/04:30pm 9.6 6.4 5.0 73 2.1 N 11 15 6 8 1029.4 1029.8 0.0
29/04:00pm 10.0 6.1 5.2 72 2.2 NNW 15 20 8 11 1029.9 1030.3 0.0
29/03:30pm 9.8 5.9 5.2 73 2.1 N 15 22 8 12 1029.7 1030.1 0.0
29/03:00pm 9.8 5.9 5.2 73 2.1 N 15 19 8 10 1030.5 1030.9 0.0
29/02:30pm 9.8 6.0 5.6 75 1.9 N 15 22 8 12 1031.0 1031.4 0.0
29/02:00pm 9.4 5.2 5.8 78 1.6 N 17 20 9 11 1031.2 1031.6 0.0
29/01:30pm 8.9 4.7 5.6 80 1.5 N 17 22 9 12 1031.4 1031.8 0.0
29/01:00pm 9.6 5.4 5.8 77 1.7 N 17 20 9 11 1032.0 1032.4 0.0
29/12:30pm 8.5 4.3 5.8 83 1.2 NNE 17 20 9 11 1032.5 1032.9 0.0
29/12:00pm 8.2 4.4 5.7 84 1.1 N 15 22 8 12 1033.7 1034.0 0.0
29/11:30am 9.4 6.1 6.5 82 1.4 N 13 17 7 9 1033.8 1034.1 0.0
29/11:00am 8.1 3.9 5.7 85 1.1 NNE 17 20 9 11 1034.1 1034.4 0.0
29/10:48am 7.8 4.3 7.4 97 0.2 NNE 15 20 8 11 1034.1 1034.4 0.0
29/10:37am 7.2 3.3 7.1 99 0.0 NNE 17 20 9 11 1034.1 1034.4 0.0
29/10:30am 6.9 3.7 6.8 99 0.0 NNE 13 20 7 11 1034.2 1034.5 0.0
29/10:00am 4.6 1.3 4.5 99 0.0 N 11 13 6 7 1034.8 1035.1 0.0
29/09:30am 4.5 1.2 4.4 99 0.0 N 11 15 6 8 1034.5 1034.8 0.0
29/09:00am 3.6 2.2 3.5 99 0.0 CALM 0 0 0 0 1034.8 1035.1 0.0
29/08:30am 2.1 -0.7 2.0 99 0.0 SW 6 7 3 4 1034.5 1034.8 0.0
29/08:00am 0.7 -2.5 0.6 99 0.0 SW 7 9 4 5 1034.2 1034.5 0.0
29/07:30am 0.2 -2.9 0.1 99 0.0 SW 6 6 3 3 1033.8 1034.1 0.0
29/07:00am 0.6 -1.3 0.3 98 0.1 CALM 0 0 0 0 1033.6 1033.9 0.0
29/06:45am 2.3 0.7 2.2 99 0.0 CALM 0 0 0 0 1033.7 1034.0 0.0
29/06:30am 2.5 0.5 2.4 99 0.0 SW 2 6 1 3 1033.6 1033.9 0.0
29/06:16am 2.7 0.0 2.4 98 0.1 SW 6 6 3 3 1033.6 1033.9 0.0
29/06:00am 3.2 0.5 2.9 98 0.1 SW 6 7 3 4 1033.4 1033.8 0.0
29/05:45am 3.2 0.5 2.6 96 0.2 SW 6 7 3 4 1033.2 1033.6 0.0
29/05:30am 3.5 1.6 2.6 94 0.4 SW 2 6 1 3 1033.0 1033.4 0.0
29/05:26am 4.0 2.5 3.1 94 0.4 CALM 0 0 0 0 1033.0 1033.4 0.0
29/05:00am 5.4 4.2 4.7 95 0.3 CALM 0 0 0 0 1033.0 1033.4 0.0
29/04:30am 5.3 4.1 4.7 96 0.3 CALM 0 0 0 0 1033.0 1033.4 0.0
29/04:00am 5.4 4.2 4.8 96 0.3 CALM 0 0 0 0 1033.3 1033.7 0.0
29/03:30am 5.6 4.5 5.0 96 0.3 CALM 0 0 0 0 1033.4 1033.8 0.0
29/03:00am 5.5 4.0 4.8 95 0.3 SW 2 6 1 3 1033.7 1034.0 0.0
29/02:30am 5.7 4.5 4.8 94 0.4 CALM 0 0 0 0 1033.4 1033.8 0.0
29/02:00am 5.3 3.7 4.4 94 0.4 SW 2 6 1 3 1033.0 1033.4 0.0
29/01:30am 5.2 2.5 3.9 91 0.6 SW 7 9 4 5 1033.1 1033.5 0.0
29/01:00am 6.7 5.6 4.9 88 0.8 CALM 0 0 0 0 1033.8 1034.1 0.0
29/12:30am 6.9 5.8 4.9 87 0.9 CALM 0 0 0 0 1034.0 1034.3 0.0
29/12:00am 7.2 5.9 4.0 80 1.4 CALM 0 0 0 0 1034.1 1034.4 0.0
 
Date/Time
EST
Temp
°C
App
Temp
°C
Dew
Point
Rel
Hum
%
Delta-T
°C
Wind Press
QNH
hPa
Press
MSL
hPa
Rain
since 9 am
mm
Dir
 
Spd
km/h
Gust
km/h
Spd
kts
Gust
kts
28/11:30pm 8.2 6.9 3.9 74 1.9 CALM 0 0 0 0 1034.1 1034.4 0.0
28/11:00pm 8.0 5.9 4.0 76 1.7 SW 4 6 2 3 1034.2 1034.5 0.0
28/10:30pm 8.4 7.0 3.8 73 2.0 CALM 0 0 0 0 1034.3 1034.6 0.0
28/10:00pm 8.6 6.0 4.0 73 2.0 SW 7 9 4 5 1034.5 1034.8 0.0
28/09:30pm 8.0 6.9 5.1 82 1.3 CALM 0 0 0 0 1034.4 1034.7 0.0
28/09:00pm 8.6 6.4 5.2 79 1.5 N 6 7 3 4 1034.3 1034.6 0.0
28/08:30pm 8.6 6.1 5.0 78 1.6 N 7 9 4 5 1034.5 1034.8 0.0
28/08:00pm 8.8 7.8 5.5 80 1.5 CALM 0 0 0 0 1034.3 1034.6 0.0
28/07:30pm 8.9 8.0 6.0 82 1.3 CALM 0 0 0 0 1034.3 1034.6 0.0
28/07:00pm 9.1 8.1 5.8 80 1.5 CALM 0 0 0 0 1034.1 1034.4 0.0
28/06:30pm 8.9 6.9 6.2 83 1.2 N 6 7 3 4 1034.0 1034.3 0.0
28/06:00pm 9.1 6.1 5.8 80 1.5 N 11 13 6 7 1033.8 1034.1 0.0
28/05:30pm 9.0 6.1 4.8 75 1.9 N 9 9 5 5 1033.7 1034.0 0.0
28/05:00pm 10.7 7.6 5.7 71 2.3 N 11 13 6 7 1033.4 1033.8 0.0
28/04:30pm 11.9 9.3 6.0 67 2.8 N 9 11 5 6 1033.6 1033.9 0.0
28/04:00pm 11.4 8.2 5.1 65 2.9 NNW 11 17 6 9 1033.4 1033.8 0.0
28/03:30pm 12.8 10.5 5.5 61 3.4 NW 7 11 4 6 1033.6 1033.9 0.0
28/03:00pm 12.8 9.9 4.8 58 3.7 NW 9 13 5 7 1033.7 1034.0 0.0
28/02:30pm 12.6 9.7 4.6 58 3.7 N 9 13 5 7 1033.7 1034.0 0.0
28/02:00pm 12.2 9.3 4.4 59 3.5 W 9 15 5 8 1033.8 1034.1 0.0
28/01:30pm 12.6 9.1 5.3 61 3.4 W 13 19 7 10 1034.1 1034.4 0.0
28/01:00pm 12.2 8.7 5.6 64 3.1 W 13 19 7 10 1034.3 1034.6 0.0
28/12:30pm 11.5 8.8 5.8 68 2.7 W 9 15 5 8 1034.9 1035.2 0.0
28/12:00pm 11.3 9.1 6.0 70 2.5 W 7 13 4 7 1035.3 1035.7 0.0
28/11:30am 10.8 8.5 5.8 71 2.3 W 7 11 4 6 1035.9 1036.3 0.0
28/11:00am 10.1 8.4 5.9 75 1.9 W 4 7 2 4 1036.2 1036.6 0.0
28/10:30am 9.1 7.1 6.2 82 1.3 W 6 9 3 5 1036.2 1036.6 0.0
28/10:00am 7.9 6.8 5.2 83 1.2 CALM 0 0 0 0 1036.2 1036.6 0.0
28/09:30am 7.5 6.8 6.8 95 0.3 CALM 0 0 0 0 1036.0 1036.4 0.0

Other Formats:

Comma delimited format used in spreadsheet applications
http://www.bom.gov.au/fwo/IDV60801/IDV60801.94874.axf

JavaScript Object Notation format (JSON) in row-major order
http://www.bom.gov.au/fwo/IDV60801/IDV60801.94874.json